^^
Datos históricos de la estación: Murcia-Puente Tocinos
Diario Informe para Junio 21, 2019 Unidades:  Ambas    Ingés   Métrico
Diario Semanal Mensual Anual
  Máxima: Mínima: Promedio:
Temperatura: 91 °F /  32.8 °C 76.8 °F /  24.9 °C 83.5 °F /  28.6 °C
Punto de rocio: 69.3 °F /  20.7 °C 55.8 °F /  13.2 °C 62.4 °F /  16.9 °C
Humedad: 70% 31.5% 50%
Velocidad viento: 15.2mph /  24.5km/h - 7.3mph /  11.7km/h
Racha viento: 28mph /  45.1km/h - -
Viento- - ESE
Presión: 30.1 in /  1019.2 hPa 30 in /  1014.6 hPa -
Precipitación: 0 in /  0.0 mm    
 
 
Tabla de datos para Junio 21, 2019
Hora Temperatura Punto de rocio Presión Viento Velocidad viento Racha viento Humedad Intensidad lluvia(por hora) Nubes
00:04 80.1 °F /  26.7 °C 65.5 °F /  18.6 °C 30in /  1015.4hPa NE 4.7mph /  7.6km/h 7mph /  11.3km/h 61% 0in /  0.0mm
00:09 80.1 °F /  26.7 °C 65.5 °F /  18.6 °C 30in /  1015.3hPa NE 4.3mph /  6.9km/h 7mph /  11.3km/h 61% 0in /  0.0mm
00:14 80.1 °F /  26.7 °C 65.3 °F /  18.5 °C 30in /  1015.3hPa NE 3.1mph /  5km/h 5mph /  8km/h 61% 0in /  0.0mm
00:19 80.1 °F /  26.7 °C 65.5 °F /  18.6 °C 30in /  1015.4hPa NNE 2.3mph /  3.7km/h 3mph /  4.8km/h 61% 0in /  0.0mm
00:24 80.1 °F /  26.7 °C 65.3 °F /  18.5 °C 30in /  1015.4hPa Calm   2mph /  3.2km/h 61% 0in /  0.0mm
00:29 79.9 °F /  26.6 °C 65.1 °F /  18.4 °C 30in /  1015.4hPa Calm     61% 0in /  0.0mm
00:34 79.9 °F /  26.6 °C 65.1 °F /  18.4 °C 30in /  1015.4hPa Calm     61% 0in /  0.0mm
00:39 79.9 °F /  26.6 °C 65.1 °F /  18.4 °C 30in /  1015.4hPa Calm     61% 0in /  0.0mm
00:44 79.9 °F /  26.6 °C 64.9 °F /  18.3 °C 30in /  1015.4hPa Calm   4mph /  6.4km/h 60.3% 0in /  0.0mm
00:49 79.7 °F /  26.5 °C 64.8 °F /  18.2 °C 30in /  1015.4hPa ONO 0.4mph /  0.7km/h 5mph /  8km/h 60.3% 0in /  0.0mm
00:54 79.7 °F /  26.5 °C 64.6 °F /  18.1 °C 30in /  1015.4hPa ONO 1.8mph /  2.9km/h 5mph /  8km/h 60% 0in /  0.0mm
00:59 79.7 °F /  26.5 °C 64.6 °F /  18.1 °C 30in /  1015.4hPa OSO 2.2mph /  3.5km/h 5mph /  8km/h 60% 0in /  0.0mm
01:04 79.9 °F /  26.6 °C 64.2 °F /  17.9 °C 30in /  1015.4hPa Oeste 2.9mph /  4.7km/h 6.9mph /  11.1km/h 59.1% 0in /  0.0mm
01:09 79.9 °F /  26.6 °C 64.2 °F /  17.9 °C 30in /  1015.3hPa Oeste 3.1mph /  5km/h 7mph /  11.3km/h 59% 0in /  0.0mm
01:14 80.1 °F /  26.7 °C 64 °F /  17.8 °C 30in /  1015.3hPa Oeste 3.6mph /  5.8km/h 6mph /  9.7km/h 58.2% 0in /  0.0mm
01:19 80.1 °F /  26.7 °C 64 °F /  17.8 °C 30in /  1015.3hPa Oeste 3.4mph /  5.5km/h 5mph /  8km/h 57.9% 0in /  0.0mm
01:24 80.1 °F /  26.7 °C 63.5 °F /  17.5 °C 30in /  1015.3hPa Oeste 2.9mph /  4.7km/h 3mph /  4.8km/h 57% 0in /  0.0mm
01:29 80.2 °F /  26.8 °C 63.1 °F /  17.3 °C 30in /  1015.3hPa ONO 2.1mph /  3.4km/h   56.2% 0in /  0.0mm
01:34 80.4 °F /  26.9 °C 63.5 °F /  17.5 °C 30in /  1015.3hPa Calm     56.4% 0in /  0.0mm
01:39 80.6 °F /  27 °C 64 °F /  17.8 °C 30in /  1015.2hPa Calm     57% 0in /  0.0mm
01:44 80.6 °F /  27 °C 64 °F /  17.8 °C 30in /  1015.2hPa Calm   3.1mph /  5km/h 57% 0in /  0.0mm
01:49 80.8 °F /  27.1 °C 64 °F /  17.8 °C 30in /  1015.2hPa SSE 0.5mph /  0.8km/h 4.7mph /  7.6km/h 57% 0in /  0.0mm
01:54 80.6 °F /  27 °C 63.9 °F /  17.7 °C 30in /  1015.1hPa SSO 1.8mph /  2.9km/h 5.9mph /  9.5km/h 56.8% 0in /  0.0mm
01:59 80.6 °F /  27 °C 63.7 °F /  17.6 °C 30in /  1015.1hPa OSO 2.2mph /  3.5km/h 6mph /  9.7km/h 56.5% 0in /  0.0mm
02:04 80.6 °F /  27 °C 64 °F /  17.8 °C 30in /  1015.2hPa Sur 3.1mph /  5km/h 5mph /  8km/h 57% 0in /  0.0mm
02:09 80.4 °F /  26.9 °C 64.2 °F /  17.9 °C 30in /  1015.2hPa SSO 3.2mph /  5.2km/h 6.9mph /  11.1km/h 57.8% 0in /  0.0mm
02:14 80.2 °F /  26.8 °C 64 °F /  17.8 °C 30in /  1015.2hPa SO 3.6mph /  5.8km/h 7mph /  11.3km/h 58% 0in /  0.0mm
02:19 80.1 °F /  26.7 °C 64 °F /  17.8 °C 30in /  1015.2hPa SO 3.6mph /  5.8km/h 6.9mph /  11.1km/h 58% 0in /  0.0mm
02:24 80.1 °F /  26.7 °C 64.4 °F /  18 °C 30in /  1015.1hPa SO 3.6mph /  5.8km/h 9.2mph /  14.8km/h 58.9% 0in /  0.0mm
02:29 79.9 °F /  26.6 °C 64.2 °F /  17.9 °C 30in /  1015.1hPa SO 4mph /  6.5km/h 9.2mph /  14.8km/h 59% 0in /  0.0mm
02:34 79.7 °F /  26.5 °C 64.2 °F /  17.9 °C 30in /  1015.1hPa SO 5.2mph /  8.4km/h 9mph /  14.5km/h 59% 0in /  0.0mm
02:39 79.5 °F /  26.4 °C 63.9 °F /  17.7 °C 30in /  1015.1hPa SO 5.1mph /  8.2km/h 7mph /  11.3km/h 59% 0in /  0.0mm
02:44 79.5 °F /  26.4 °C 63.9 °F /  17.7 °C 30in /  1015.1hPa SO 4.7mph /  7.6km/h 7mph /  11.3km/h 59% 0in /  0.0mm
02:49 79.3 °F /  26.3 °C 63.9 °F /  17.7 °C 30in /  1015.1hPa SO 4.5mph /  7.3km/h 7mph /  11.3km/h 59% 0in /  0.0mm
02:54 79.3 °F /  26.3 °C 63.9 °F /  17.7 °C 30in /  1015.0hPa SO 4mph /  6.5km/h 6.2mph /  10km/h 59% 0in /  0.0mm
02:59 79.3 °F /  26.3 °C 63.9 °F /  17.7 °C 30in /  1015.0hPa OSO 4mph /  6.5km/h 6mph /  9.7km/h 59% 0in /  0.0mm
03:04 79.3 °F /  26.3 °C 63.7 °F /  17.6 °C 30in /  1015.0hPa SO 4mph /  6.5km/h 6.2mph /  10km/h 58.7% 0in /  0.0mm
03:09 79.2 °F /  26.2 °C 63.5 °F /  17.5 °C 30in /  1014.9hPa SO 4mph /  6.5km/h 6mph /  9.7km/h 58.7% 0in /  0.0mm
03:14 79.2 °F /  26.2 °C 63.1 °F /  17.3 °C 30in /  1014.9hPa SO 4mph /  6.5km/h 6.9mph /  11.1km/h 58.2% 0in /  0.0mm
03:19 79.2 °F /  26.2 °C 63.3 °F /  17.4 °C 30in /  1014.9hPa SSO 4mph /  6.5km/h 7mph /  11.3km/h 58.5% 0in /  0.0mm
03:24 79.2 °F /  26.2 °C 63.7 °F /  17.6 °C 30in /  1014.9hPa SSO 4mph /  6.5km/h 8.5mph /  13.7km/h 59.5% 0in /  0.0mm
03:29 78.8 °F /  26 °C 63.7 °F /  17.6 °C 30in /  1014.9hPa SSO 4.3mph /  7km/h 9mph /  14.5km/h 59.8% 0in /  0.0mm
03:34 78.6 °F /  25.9 °C 63.3 °F /  17.4 °C 30in /  1014.9hPa SSO 5.2mph /  8.4km/h 9.2mph /  14.8km/h 59.5% 0in /  0.0mm
03:39 78.6 °F /  25.9 °C 63.5 °F /  17.5 °C 30in /  1014.9hPa SO 5mph /  8.1km/h 9mph /  14.5km/h 59.9% 0in /  0.0mm
03:44 78.4 °F /  25.8 °C 63 °F /  17.2 °C 30in /  1014.9hPa SO 4.7mph /  7.6km/h 8.1mph /  13km/h 59.1% 0in /  0.0mm
03:49 78.4 °F /  25.8 °C 63 °F /  17.2 °C 30in /  1014.9hPa SO 4.6mph /  7.4km/h 8.5mph /  13.7km/h 59% 0in /  0.0mm
03:54 78.4 °F /  25.8 °C 63 °F /  17.2 °C 30in /  1014.8hPa SSO 4.3mph /  6.9km/h 9mph /  14.5km/h 59% 0in /  0.0mm
03:59 78.4 °F /  25.8 °C 62.8 °F /  17.1 °C 30in /  1014.8hPa SE 3.9mph /  6.3km/h 8mph /  12.9km/h 59% 0in /  0.0mm
04:04 78.3 °F /  25.7 °C 63 °F /  17.2 °C 30in /  1014.9hPa Sur 3.1mph /  5km/h 7.6mph /  12.2km/h 59.3% 0in /  0.0mm
04:09 78.1 °F /  25.6 °C 62.6 °F /  17 °C 30in /  1014.9hPa SSO 3.4mph /  5.5km/h 8.5mph /  13.7km/h 59.1% 0in /  0.0mm
04:14 78.1 °F /  25.6 °C 62.6 °F /  17 °C 30in /  1014.9hPa SSO 4.3mph /  6.9km/h 9mph /  14.5km/h 59% 0in /  0.0mm
04:19 78.3 °F /  25.7 °C 62.2 °F /  16.8 °C 30in /  1014.9hPa SO 4mph /  6.4km/h 6.4mph /  10.3km/h 58.1% 0in /  0.0mm
04:24 78.3 °F /  25.7 °C 62.2 °F /  16.8 °C 30in /  1014.8hPa Sur 3.1mph /  5km/h 7mph /  11.3km/h 58% 0in /  0.0mm
04:29 78.1 °F /  25.6 °C 62.4 °F /  16.9 °C 30in /  1014.8hPa SSE 3mph /  4.9km/h 6mph /  9.7km/h 58.5% 0in /  0.0mm
04:34 78.1 °F /  25.6 °C 62.4 °F /  16.9 °C 30in /  1014.8hPa SSO 2.9mph /  4.7km/h 6.2mph /  10km/h 58.7% 0in /  0.0mm
04:39 77.9 °F /  25.5 °C 62.4 °F /  16.9 °C 30in /  1014.7hPa Sur 3.1mph /  5km/h 6mph /  9.7km/h 59% 0in /  0.0mm
04:44 77.7 °F /  25.4 °C 62.2 °F /  16.8 °C 30in /  1014.7hPa Sur 3.6mph /  5.8km/h 6mph /  9.7km/h 59% 0in /  0.0mm
04:49 77.7 °F /  25.4 °C 62.1 °F /  16.7 °C 30in /  1014.7hPa SO 3.3mph /  5.3km/h 6mph /  9.7km/h 58.8% 0in /  0.0mm
04:54 77.7 °F /  25.4 °C 62.1 °F /  16.7 °C 30in /  1014.6hPa OSO 2.4mph /  3.9km/h 5.2mph /  8.4km/h 58.7% 0in /  0.0mm
04:59 77.7 °F /  25.4 °C 62.2 °F /  16.8 °C 30in /  1014.6hPa SSO 2.6mph /  4.2km/h 5.8mph /  9.3km/h 59% 0in /  0.0mm
05:04 77.7 °F /  25.4 °C 62.1 °F /  16.7 °C 30in /  1014.7hPa Sur 3.1mph /  5km/h 6mph /  9.7km/h 58.6% 0in /  0.0mm
05:09 77.7 °F /  25.4 °C 62.2 °F /  16.8 °C 30in /  1014.7hPa SSO 3.4mph /  5.4km/h 7.4mph /  11.9km/h 59% 0in /  0.0mm
05:14 77.5 °F /  25.3 °C 62.1 °F /  16.7 °C 30in /  1014.7hPa Sur 4mph /  6.5km/h 7mph /  11.3km/h 59% 0in /  0.0mm
05:19 77.5 °F /  25.3 °C 62.1 °F /  16.7 °C 30in /  1014.8hPa Sur 4mph /  6.5km/h 7.4mph /  11.9km/h 59% 0in /  0.0mm
05:24 77.5 °F /  25.3 °C 62.1 °F /  16.7 °C 30in /  1014.8hPa SSO 4mph /  6.5km/h 8.1mph /  13km/h 59% 0in /  0.0mm
05:29 77.4 °F /  25.2 °C 61.9 °F /  16.6 °C 30in /  1014.8hPa SSO 4.4mph /  7.1km/h 8.1mph /  13km/h 59% 0in /  0.0mm
05:34 77.4 °F /  25.2 °C 62.1 °F /  16.7 °C 30in /  1014.9hPa Sur 5.4mph /  8.7km/h 8mph /  12.9km/h 59.3% 0in /  0.0mm
05:39 77.4 °F /  25.2 °C 62.4 °F /  16.9 °C 30in /  1014.9hPa SSO 5.1mph /  8.2km/h 6.9mph /  11.1km/h 59.9% 0in /  0.0mm
05:44 77.4 °F /  25.2 °C 62.4 °F /  16.9 °C 30in /  1014.9hPa SSO 4.3mph /  6.9km/h 7.6mph /  12.2km/h 60% 0in /  0.0mm
05:49 77.4 °F /  25.2 °C 62.2 °F /  16.8 °C 30in /  1014.9hPa SSO 4.4mph /  7.1km/h 8.1mph /  13km/h 59.7% 0in /  0.0mm
05:54 77.4 °F /  25.2 °C 61.9 °F /  16.6 °C 30in /  1014.9hPa SSO 4.7mph /  7.6km/h 7mph /  11.3km/h 59% 0in /  0.0mm
05:59 77.2 °F /  25.1 °C 61.7 °F /  16.5 °C 30in /  1014.9hPa SSO 4.6mph /  7.4km/h 8.1mph /  13km/h 59% 0in /  0.0mm
06:04 77.2 °F /  25.1 °C 61.7 °F /  16.5 °C 30in /  1015.0hPa SSO 4.3mph /  6.9km/h 8mph /  12.9km/h 59.1% 0in /  0.0mm
06:09 77.2 °F /  25.1 °C 62.2 °F /  16.8 °C 30in /  1015.0hPa SSO 4.4mph /  7.1km/h 7.4mph /  11.9km/h 59.9% 0in /  0.0mm
06:14 77.2 °F /  25.1 °C 62.2 °F /  16.8 °C 30in /  1015.0hPa SSO 4.7mph /  7.6km/h 7.4mph /  11.9km/h 60% 0in /  0.0mm
06:19 77.2 °F /  25.1 °C 62.2 °F /  16.8 °C 30in /  1015.0hPa SSO 4.6mph /  7.4km/h 7mph /  11.3km/h 60% 0in /  0.0mm
06:24 77.2 °F /  25.1 °C 62.2 °F /  16.8 °C 30in /  1014.9hPa SSO 4.3mph /  6.9km/h 6mph /  9.7km/h 60% 0in /  0.0mm
06:29 77 °F /  25 °C 62.1 °F /  16.7 °C 30in /  1014.9hPa SSO 4mph /  6.4km/h 6mph /  9.7km/h 60% 0in /  0.0mm
06:34 77 °F /  25 °C 61.5 °F /  16.4 °C 30in /  1014.9hPa SO 3.1mph /  5km/h 5mph /  8km/h 59.1% 0in /  0.0mm
06:39 77 °F /  25 °C 61.5 °F /  16.4 °C 30in /  1014.9hPa SO 2.9mph /  4.7km/h 5mph /  8km/h 59% 0in /  0.0mm
06:44 76.8 °F /  24.9 °C 61.2 °F /  16.2 °C 30in /  1014.9hPa SO 2.4mph /  3.9km/h 6.2mph /  10km/h 58.3% 0in /  0.0mm
06:49 77 °F /  25 °C 61.2 °F /  16.2 °C 30in /  1015.2hPa Sur 2.9mph /  4.6km/h 8.1mph /  13km/h 58.2% 0in /  0.0mm
06:54 76.8 °F /  24.9 °C 61 °F /  16.1 °C 30in /  1015.2hPa SSO 4mph /  6.5km/h 10.4mph /  16.7km/h 58.1% 0in /  0.0mm
06:59 76.8 °F /  24.9 °C 61 °F /  16.1 °C 30in /  1015.2hPa SSO 4.5mph /  7.2km/h 10mph /  16.1km/h 58% 0in /  0.0mm
07:04 76.8 °F /  24.9 °C 61 °F /  16.1 °C 30in /  1015.2hPa SSO 5.4mph /  8.7km/h 7mph /  11.3km/h 58% 0in /  0.0mm
07:09 76.8 °F /  24.9 °C 61 °F /  16.1 °C 30in /  1015.0hPa Sur 5mph /  8.1km/h 7.4mph /  11.9km/h 58% 0in /  0.0mm
07:14 76.8 °F /  24.9 °C 61 °F /  16.1 °C 30in /  1015.0hPa SSO 4mph /  6.5km/h 7mph /  11.3km/h 58% 0in /  0.0mm
07:19 76.8 °F /  24.9 °C 60.6 °F /  15.9 °C 30in /  1015.0hPa SSO 3.8mph /  6.1km/h 5.8mph /  9.3km/h 57.4% 0in /  0.0mm
07:24 76.8 °F /  24.9 °C 60.8 °F /  16 °C 30in /  1015.0hPa SSO 3.1mph /  5km/h 6mph /  9.7km/h 57.8% 0in /  0.0mm
07:29 77 °F /  25 °C 61 °F /  16.1 °C 30in /  1015.0hPa SSO 2.9mph /  4.7km/h 5.2mph /  8.4km/h 57.9% 0in /  0.0mm
07:34 77 °F /  25 °C 60.6 °F /  15.9 °C 30in /  1015.1hPa SSO 2.4mph /  3.9km/h 5.8mph /  9.3km/h 57% 0in /  0.0mm
07:39 77.2 °F /  25.1 °C 60.6 °F /  15.9 °C 30in /  1015.1hPa SSO 2.7mph /  4.4km/h 6.9mph /  11.1km/h 57% 0in /  0.0mm
07:44 77.2 °F /  25.1 °C 60.8 °F /  16 °C 30in /  1015.1hPa SSO 3.6mph /  5.8km/h 7mph /  11.3km/h 57% 0in /  0.0mm
07:49 77.4 °F /  25.2 °C 60.6 °F /  15.9 °C 30in /  1015.3hPa SSO 3.7mph /  6km/h 6.2mph /  10km/h 56.6% 0in /  0.0mm
07:54 77.4 °F /  25.2 °C 60.4 °F /  15.8 °C 30in /  1015.3hPa SSO 4mph /  6.5km/h 6.9mph /  11.1km/h 56% 0in /  0.0mm
07:59 77.5 °F /  25.3 °C 60.8 °F /  16 °C 30in /  1015.3hPa SSO 4.1mph /  6.6km/h 7mph /  11.3km/h 56.3% 0in /  0.0mm
08:04 77.5 °F /  25.3 °C 60.6 °F /  15.9 °C 30in /  1015.4hPa SSO 4.3mph /  6.9km/h 8.1mph /  13km/h 56% 0in /  0.0mm
08:09 77.7 °F /  25.4 °C 60.8 °F /  16 °C 30in /  1015.4hPa Sur 4.4mph /  7.1km/h 9.2mph /  14.8km/h 56% 0in /  0.0mm
08:14 77.7 °F /  25.4 °C 61 °F /  16.1 °C 30in /  1015.4hPa SSO 4.7mph /  7.6km/h 9mph /  14.5km/h 56.3% 0in /  0.0mm
08:19 77.5 °F /  25.3 °C 60.6 °F /  15.9 °C 30in /  1015.7hPa SSO 4.9mph /  7.9km/h 9.7mph /  15.6km/h 55.9% 0in /  0.0mm
08:24 77.5 °F /  25.3 °C 60.6 °F /  15.9 °C 30in /  1015.7hPa SSO 5.4mph /  8.7km/h 10mph /  16.1km/h 55.9% 0in /  0.0mm
08:29 77.5 °F /  25.3 °C 60.6 °F /  15.9 °C 30in /  1015.7hPa SO 5.4mph /  8.7km/h 10.2mph /  16.4km/h 56% 0in /  0.0mm
08:34 77.7 °F /  25.4 °C 60.6 °F /  15.9 °C 30in /  1015.9hPa SO 5.4mph /  8.7km/h 10.7mph /  17.2km/h 55.9% 0in /  0.0mm
08:39 77.7 °F /  25.4 °C 60.6 °F /  15.9 °C 30in /  1015.9hPa SO 5.4mph /  8.7km/h 11mph /  17.7km/h 55.7% 0in /  0.0mm
08:44 78.1 °F /  25.6 °C 60.6 °F /  15.9 °C 30in /  1015.9hPa OSO 5.4mph /  8.7km/h 9.2mph /  14.8km/h 55% 0in /  0.0mm
08:49 78.3 °F /  25.7 °C 60.8 °F /  16 °C 30in /  1016.0hPa SO 5.4mph /  8.7km/h 9mph /  14.5km/h 55% 0in /  0.0mm
08:54 78.4 °F /  25.8 °C 60.8 °F /  16 °C 30in /  1016.0hPa SO 5.4mph /  8.7km/h 9mph /  14.5km/h 55% 0in /  0.0mm
08:59 78.6 °F /  25.9 °C 61 °F /  16.1 °C 30in /  1016.0hPa OSO 5.3mph /  8.6km/h 8.5mph /  13.7km/h 55% 0in /  0.0mm
09:04 78.8 °F /  26 °C 60.8 °F /  16 °C 30in /  1016.1hPa Oeste 5.2mph /  8.4km/h 9mph /  14.5km/h 54.3% 0in /  0.0mm
09:09 79 °F /  26.1 °C 60.8 °F /  16 °C 30in /  1016.1hPa OSO 4.8mph /  7.8km/h 8.1mph /  13km/h 53.8% 0in /  0.0mm
09:14 79.3 °F /  26.3 °C 60.8 °F /  16 °C 30in /  1016.1hPa OSO 4mph /  6.5km/h 6.9mph /  11.1km/h 53.2% 0in /  0.0mm
09:19 79.3 °F /  26.3 °C 60.4 °F /  15.8 °C 30in /  1016.2hPa SO 4.1mph /  6.6km/h 8.7mph /  14km/h 52.3% 0in /  0.0mm
09:24 79.7 °F /  26.5 °C 60.4 °F /  15.8 °C 30in /  1016.2hPa SO 4.3mph /  6.9km/h 9.2mph /  14.8km/h 51.8% 0in /  0.0mm
09:29 79.9 °F /  26.6 °C 60.3 °F /  15.7 °C 30in /  1016.2hPa SSO 4.4mph /  7.1km/h 9mph /  14.5km/h 51.4% 0in /  0.0mm
09:34 80.2 °F /  26.8 °C 60.6 °F /  15.9 °C 30in /  1016.2hPa OSO 4.7mph /  7.6km/h 7mph /  11.3km/h 51.3% 0in /  0.0mm
09:39 80.4 °F /  26.9 °C 60.3 °F /  15.7 °C 30in /  1016.2hPa Oeste 4.6mph /  7.4km/h 8.1mph /  13km/h 50.4% 0in /  0.0mm
09:44 80.6 °F /  27 °C 60.3 °F /  15.7 °C 30in /  1016.2hPa OSO 4.3mph /  6.9km/h 8mph /  12.9km/h 50.1% 0in /  0.0mm
09:49 81 °F /  27.2 °C 60.6 °F /  15.9 °C 30in /  1016.3hPa SO 4mph /  6.4km/h 6.2mph /  10km/h 50.2% 0in /  0.0mm
09:54 81.1 °F /  27.3 °C 60.6 °F /  15.9 °C 30in /  1016.3hPa SO 3.1mph /  5km/h 6mph /  9.7km/h 49.9% 0in /  0.0mm
09:59 81.5 °F /  27.5 °C 60.6 °F /  15.9 °C 30in /  1016.3hPa OSO 3.1mph /  5km/h 7.4mph /  11.9km/h 49.2% 0in /  0.0mm
10:04 81.7 °F /  27.6 °C 60.8 °F /  16 °C 30in /  1016.3hPa OSO 3.1mph /  5km/h 7mph /  11.3km/h 49% 0in /  0.0mm
10:09 82 °F /  27.8 °C 60.6 °F /  15.9 °C 30in /  1016.3hPa SSE 2.8mph /  4.5km/h 5mph /  8km/h 48.3% 0in /  0.0mm
10:14 82.6 °F /  28.1 °C 60.4 °F /  15.8 °C 30in /  1016.3hPa ONO 2mph /  3.2km/h 5mph /  8km/h 47.3% 0in /  0.0mm
10:19 82.8 °F /  28.2 °C 60.6 °F /  15.9 °C 30in /  1016.4hPa Oeste 2.1mph /  3.4km/h 5mph /  8km/h 47% 0in /  0.0mm
10:24 83.5 °F /  28.6 °C 60.8 °F /  16 °C 30in /  1016.4hPa North 2.4mph /  3.9km/h 5mph /  8km/h 46.4% 0in /  0.0mm
10:29 84.4 °F /  29.1 °C 60.8 °F /  16 °C 30in /  1016.4hPa NNE 2.3mph /  3.7km/h 5mph /  8km/h 45.3% 0in /  0.0mm
10:34 84.7 °F /  29.3 °C 60.8 °F /  16 °C 30in /  1016.4hPa NE 2mph /  3.2km/h 6.9mph /  11.1km/h 44.4% 0in /  0.0mm
10:39 85.1 °F /  29.5 °C 61.2 °F /  16.2 °C 30in /  1016.4hPa ENE 2.1mph /  3.4km/h 7mph /  11.3km/h 44.7% 0in /  0.0mm
10:44 85.6 °F /  29.8 °C 62.1 °F /  16.7 °C 30in /  1016.4hPa NE 2.4mph /  3.9km/h 10.2mph /  16.4km/h 45.3% 0in /  0.0mm
10:49 85.1 °F /  29.5 °C 62.2 °F /  16.8 °C 30in /  1016.4hPa NE 3.2mph /  5.1km/h 10.4mph /  16.7km/h 46.5% 0in /  0.0mm
10:54 85.1 °F /  29.5 °C 62.8 °F /  17.1 °C 30in /  1016.3hPa NE 5.2mph /  8.4km/h 10.2mph /  16.4km/h 47.2% 0in /  0.0mm
10:59 85.3 °F /  29.6 °C 63.7 °F /  17.6 °C 30in /  1016.3hPa NNE 5mph /  8.1km/h 12.7mph /  20.4km/h 48.6% 0in /  0.0mm
11:04 85.1 °F /  29.5 °C 63.7 °F /  17.6 °C 30in /  1016.3hPa NE 4.7mph /  7.6km/h 14mph /  22.5km/h 49% 0in /  0.0mm
11:09 84.7 °F /  29.3 °C 63.5 °F /  17.5 °C 30in /  1016.3hPa NNE 5.4mph /  8.7km/h 14mph /  22.5km/h 49% 0in /  0.0mm
11:14 85.1 °F /  29.5 °C 64.2 °F /  17.9 °C 30in /  1016.3hPa NNE 7.4mph /  11.9km/h 13mph /  20.9km/h 49.7% 0in /  0.0mm
11:19 85.5 °F /  29.7 °C 64.4 °F /  18 °C 30in /  1016.4hPa NNE 7mph /  11.2km/h 16.1mph /  25.9km/h 49.2% 0in /  0.0mm
11:24 85.6 °F /  29.8 °C 64.8 °F /  18.2 °C 30in /  1016.4hPa NE 5.9mph /  9.5km/h 17.3mph /  27.8km/h 49.9% 0in /  0.0mm
11:29 85.8 °F /  29.9 °C 64.9 °F /  18.3 °C 30in /  1016.4hPa NE 6.6mph /  10.7km/h 17mph /  27.4km/h 49.8% 0in /  0.0mm
11:34 86.2 °F /  30.1 °C 64.8 °F /  18.2 °C 30in /  1016.4hPa NNE 8.7mph /  14km/h 17.3mph /  27.8km/h 49.1% 0in /  0.0mm
11:39 86.2 °F /  30.1 °C 64.9 °F /  18.3 °C 30in /  1016.4hPa NE 9.1mph /  14.7km/h 16.1mph /  25.9km/h 49.3% 0in /  0.0mm
11:44 86.5 °F /  30.3 °C 64 °F /  17.8 °C 30in /  1016.4hPa NE 10.2mph /  16.4km/h 16.1mph /  25.9km/h 47.4% 0in /  0.0mm
11:49 86.9 °F /  30.5 °C 63.9 °F /  17.7 °C 30in /  1016.5hPa NE 10.1mph /  16.2km/h 18.1mph /  29.1km/h 46.4% 0in /  0.0mm
11:54 87.4 °F /  30.8 °C 61.7 °F /  16.5 °C 30in /  1016.5hPa NE 9.2mph /  14.8km/h 24.2mph /  38.9km/h 42.3% 0in /  0.0mm
11:59 87.4 °F /  30.8 °C 60.8 °F /  16 °C 30in /  1016.5hPa NE 10.4mph /  16.8km/h 24mph /  38.6km/h 40.8% 0in /  0.0mm
12:04 88.2 °F /  31.2 °C 61.3 °F /  16.3 °C 30in /  1016.6hPa NE 13mph /  20.9km/h 19.7mph /  31.7km/h 40.8% 0in /  0.0mm
12:09 88.3 °F /  31.3 °C 59.9 °F /  15.5 °C 30in /  1016.6hPa NE 12.4mph /  19.9km/h 21.9mph /  35.2km/h 38.4% 0in /  0.0mm
12:14 89.1 °F /  31.7 °C 58.5 °F /  14.7 °C 30in /  1016.6hPa ENE 10.7mph /  17.2km/h 22mph /  35.4km/h 35.9% 0in /  0.0mm
12:19 89.6 °F /  32 °C 58.1 °F /  14.5 °C 30in /  1016.7hPa NE 10.8mph /  17.4km/h 21.9mph /  35.2km/h 34.7% 0in /  0.0mm
12:24 89.8 °F /  32.1 °C 56.7 °F /  13.7 °C 30in /  1016.7hPa ENE 11.2mph /  18km/h 22mph /  35.4km/h 32.8% 0in /  0.0mm
12:29 89.8 °F /  32.1 °C 55.8 °F /  13.2 °C 30in /  1016.7hPa NE 11.2mph /  18km/h 22mph /  35.4km/h 31.8% 0in /  0.0mm
12:34 89.8 °F /  32.1 °C 55.9 °F /  13.3 °C 30in /  1016.8hPa ENE 11.2mph /  18km/h 20.7mph /  33.3km/h 31.9% 0in /  0.0mm
12:39 90 °F /  32.2 °C 56.1 °F /  13.4 °C 30in /  1016.8hPa NE 11.2mph /  18.1km/h 21mph /  33.8km/h 31.9% 0in /  0.0mm
12:44 90 °F /  32.2 °C 55.9 °F /  13.3 °C 30in /  1016.8hPa NE 11.4mph /  18.4km/h 21mph /  33.8km/h 31.6% 0in /  0.0mm
12:49 89.8 °F /  32.1 °C 56.5 °F /  13.6 °C 30in /  1016.8hPa NE 11.9mph /  19.1km/h 21.3mph /  34.3km/h 32.6% 0in /  0.0mm
12:54 89.6 °F /  32 °C 56.7 °F /  13.7 °C 30in /  1016.8hPa ENE 13mph /  20.9km/h 21mph /  33.8km/h 32.9% 0in /  0.0mm
12:59 90 °F /  32.2 °C 55.8 °F /  13.2 °C 30in /  1016.8hPa NE 12.3mph /  19.8km/h 24.2mph /  38.9km/h 31.5% 0in /  0.0mm
13:04 90 °F /  32.2 °C 55.9 °F /  13.3 °C 30in /  1016.9hPa ENE 10.7mph /  17.2km/h 24mph /  38.6km/h 32% 0in /  0.0mm
13:09 90 °F /  32.2 °C 57.2 °F /  14 °C 30in /  1016.9hPa NE 11.1mph /  17.9km/h 24.2mph /  38.9km/h 33.3% 0in /  0.0mm
13:14 89.4 °F /  31.9 °C 58.3 °F /  14.6 °C 30in /  1016.9hPa NE 12.3mph /  19.8km/h 24mph /  38.6km/h 35.2% 0in /  0.0mm
13:19 89.4 °F /  31.9 °C 58.8 °F /  14.9 °C 30in /  1016.9hPa NE 12.4mph /  19.9km/h 21mph /  33.8km/h 35.9% 0in /  0.0mm
13:24 89.4 °F /  31.9 °C 59.5 °F /  15.3 °C 30in /  1016.8hPa NE 12.5mph /  20.1km/h 21mph /  33.8km/h 36.8% 0in /  0.0mm
13:29 89.4 °F /  31.9 °C 59.2 °F /  15.1 °C 30in /  1016.8hPa NE 12.5mph /  20.1km/h 21mph /  33.8km/h 36.3% 0in /  0.0mm
13:34 89.4 °F /  31.9 °C 59.5 °F /  15.3 °C 30in /  1016.8hPa NE 12.5mph /  20.1km/h 20mph /  32.2km/h 36.7% 0in /  0.0mm
13:39 89.4 °F /  31.9 °C 59.7 °F /  15.4 °C 30in /  1016.7hPa NE 12.9mph /  20.7km/h 22.3mph /  35.9km/h 37% 0in /  0.0mm
13:44 89.4 °F /  31.9 °C 59.9 °F /  15.5 °C 30in /  1016.7hPa NE 13.7mph /  22.1km/h 22mph /  35.4km/h 37.2% 0in /  0.0mm
13:49 89.8 °F /  32.1 °C 60.3 °F /  15.7 °C 30in /  1016.7hPa NE 13.3mph /  21.4km/h 22mph /  35.4km/h 37.3% 0in /  0.0mm
13:54 89.8 °F /  32.1 °C 60.1 °F /  15.6 °C 30in /  1016.6hPa NE 12.3mph /  19.8km/h 24.2mph /  38.9km/h 37% 0in /  0.0mm
13:59 89.6 °F /  32 °C 60.4 °F /  15.8 °C 30in /  1016.6hPa NE 12.4mph /  19.9km/h 24mph /  38.6km/h 37.7% 0in /  0.0mm
14:04 90 °F /  32.2 °C 60.3 °F /  15.7 °C 30in /  1016.6hPa NE 12.5mph /  20.1km/h 22mph /  35.4km/h 37% 0in /  0.0mm
14:09 90.1 °F /  32.3 °C 60.3 °F /  15.7 °C 30in /  1016.6hPa ENE 12.2mph /  19.6km/h 21mph /  33.8km/h 36.8% 0in /  0.0mm
14:14 90.3 °F /  32.4 °C 59.7 °F /  15.4 °C 30in /  1016.6hPa NE 11.4mph /  18.4km/h 20.7mph /  33.3km/h 36% 0in /  0.0mm
14:19 90.1 °F /  32.3 °C 59.5 °F /  15.3 °C 30in /  1016.6hPa NE 11.7mph /  18.8km/h 21.9mph /  35.2km/h 36% 0in /  0.0mm
14:24 90.3 °F /  32.4 °C 59.7 °F /  15.4 °C 30in /  1016.5hPa ENE 12.3mph /  19.8km/h 22mph /  35.4km/h 36% 0in /  0.0mm
14:29 90.7 °F /  32.6 °C 60.1 °F /  15.6 °C 30in /  1016.5hPa ENE 11.7mph /  18.9km/h 19.7mph /  31.7km/h 35.9% 0in /  0.0mm
14:34 90.7 °F /  32.6 °C 60.1 °F /  15.6 °C 30in /  1016.5hPa ENE 10.2mph /  16.4km/h 22.3mph /  35.9km/h 36% 0in /  0.0mm
14:39 90.5 °F /  32.5 °C 59.7 °F /  15.4 °C 30in /  1016.5hPa ENE 10.5mph /  16.9km/h 22mph /  35.4km/h 35.8% 0in /  0.0mm
14:44 90.3 °F /  32.4 °C 59.4 °F /  15.2 °C 30in /  1016.5hPa ENE 11.2mph /  18km/h 20.7mph /  33.3km/h 35.5% 0in /  0.0mm
14:49 90.7 °F /  32.6 °C 60.1 °F /  15.6 °C 30in /  1016.5hPa ENE 11.4mph /  18.3km/h 21mph /  33.8km/h 36% 0in /  0.0mm
14:54 90.7 °F /  32.6 °C 59.5 °F /  15.3 °C 30in /  1016.4hPa NE 11.8mph /  19km/h 20.8mph /  33.5km/h 35.3% 0in /  0.0mm
14:59 90.7 °F /  32.6 °C 59.4 °F /  15.2 °C 30in /  1016.4hPa NE 11.8mph /  19km/h 21mph /  33.8km/h 35.1% 0in /  0.0mm
15:04 90.9 °F /  32.7 °C 59.7 °F /  15.4 °C 30in /  1016.4hPa ENE 11.8mph /  19km/h 20mph /  32.2km/h 35.5% 0in /  0.0mm
15:09 91 °F /  32.8 °C 59.7 °F /  15.4 °C 30in /  1016.4hPa NE 11.4mph /  18.3km/h 19.6mph /  31.5km/h 35.2% 0in /  0.0mm
15:14 90.9 °F /  32.7 °C 59.9 °F /  15.5 °C 30in /  1016.4hPa ENE 10.2mph /  16.4km/h 22.3mph /  35.9km/h 35.6% 0in /  0.0mm
15:19 90.7 °F /  32.6 °C 60.1 °F /  15.6 °C 30in /  1016.4hPa NE 10.4mph /  16.8km/h 22mph /  35.4km/h 36% 0in /  0.0mm
15:24 90.5 °F /  32.5 °C 60.1 °F /  15.6 °C 30in /  1016.4hPa ENE 11.4mph /  18.4km/h 22.3mph /  35.9km/h 36.2% 0in /  0.0mm
15:29 90.7 °F /  32.6 °C 60.1 °F /  15.6 °C 30in /  1016.4hPa Este 11.6mph /  18.6km/h 22mph /  35.4km/h 36.1% 0in /  0.0mm
15:34 90.5 °F /  32.5 °C 61 °F /  16.1 °C 30in /  1016.4hPa ENE 12.3mph /  19.8km/h 21mph /  33.8km/h 37.3% 0in /  0.0mm
15:39 90.9 °F /  32.7 °C 61.2 °F /  16.2 °C 30in /  1016.2hPa ENE 11.6mph /  18.6km/h 21mph /  33.8km/h 37.1% 0in /  0.0mm
15:44 90.7 °F /  32.6 °C 61.3 °F /  16.3 °C 30in /  1016.2hPa ENE 9.7mph /  15.6km/h 23mph /  37km/h 37.6% 0in /  0.0mm
15:49 90.5 °F /  32.5 °C 61.5 °F /  16.4 °C 30in /  1016.2hPa ENE 10.1mph /  16.2km/h 23mph /  37km/h 38.3% 0in /  0.0mm
15:54 90.3 °F /  32.4 °C 61.5 °F /  16.4 °C 30in /  1016.1hPa NE 11.2mph /  18km/h 21.9mph /  35.2km/h 38.3% 0in /  0.0mm
15:59 90.7 °F /  32.6 °C 62.1 °F /  16.7 °C 30in /  1016.1hPa NE 11.2mph /  18.1km/h 22mph /  35.4km/h 38.8% 0in /  0.0mm
16:04 90.9 °F /  32.7 °C 62.6 °F /  17 °C 30in /  1016.1hPa NE 11.4mph /  18.4km/h 22.3mph /  35.9km/h 39.1% 0in /  0.0mm
16:09 90.5 °F /  32.5 °C 62.8 °F /  17.1 °C 30in /  1016.1hPa ENE 11.2mph /  18km/h 22mph /  35.4km/h 39.9% 0in /  0.0mm
16:14 90.3 °F /  32.4 °C 62.8 °F /  17.1 °C 30in /  1016.1hPa NE 10.7mph /  17.2km/h 21mph /  33.8km/h 40% 0in /  0.0mm
16:19 90.3 °F /  32.4 °C 61.9 °F /  16.6 °C 30in /  1016.1hPa NE 11mph /  17.7km/h 24.2mph /  38.9km/h 38.8% 0in /  0.0mm
16:24 90.1 °F /  32.3 °C 60.8 °F /  16 °C 30in /  1016.0hPa ENE 11.8mph /  19km/h 24.2mph /  38.9km/h 37.5% 0in /  0.0mm
16:29 90.3 °F /  32.4 °C 61.2 °F /  16.2 °C 30in /  1016.0hPa NE 11.7mph /  18.8km/h 24.2mph /  38.9km/h 37.9% 0in /  0.0mm
16:34 90.3 °F /  32.4 °C 59.7 °F /  15.4 °C 30in /  1016.0hPa NE 11.4mph /  18.4km/h 22mph /  35.4km/h 36.1% 0in /  0.0mm
16:39 90.1 °F /  32.3 °C 59.2 °F /  15.1 °C 30in /  1015.9hPa NE 12.3mph /  19.8km/h 27.9mph /  44.9km/h 35.5% 0in /  0.0mm
16:44 90 °F /  32.2 °C 59.5 °F /  15.3 °C 30in /  1015.9hPa NE 14.7mph /  23.7km/h 28mph /  45.1km/h 36.1% 0in /  0.0mm
16:49 90 °F /  32.2 °C 59.9 °F /  15.5 °C 30in /  1016.0hPa NE 14.2mph /  22.9km/h 26.5mph /  42.6km/h 36.5% 0in /  0.0mm
16:54 89.8 °F /  32.1 °C 60.1 °F /  15.6 °C 30in /  1016.0hPa NE 13mph /  20.9km/h 27.5mph /  44.3km/h 37% 0in /  0.0mm
16:59 89.8 °F /  32.1 °C 60.1 °F /  15.6 °C 30in /  1016.0hPa NE 13.2mph /  21.3km/h 27mph /  43.5km/h 37% 0in /  0.0mm
17:04 90 °F /  32.2 °C 60.3 °F /  15.7 °C 30in /  1016.0hPa NE 13.7mph /  22.1km/h 23mph /  37km/h 37% 0in /  0.0mm
17:09 90 °F /  32.2 °C 60.3 °F /  15.7 °C 30in /  1016.0hPa NE 13.5mph /  21.7km/h 23.5mph /  37.8km/h 37% 0in /  0.0mm
17:14 90 °F /  32.2 °C 60.3 °F /  15.7 °C 30in /  1016.0hPa NE 13mph /  20.9km/h 25.3mph /  40.7km/h 37% 0in /  0.0mm
17:19 90 °F /  32.2 °C 60.3 °F /  15.7 °C 30in /  1016.0hPa NE 12.9mph /  20.7km/h 25mph /  40.2km/h 37% 0in /  0.0mm
17:24 90 °F /  32.2 °C 59.9 °F /  15.5 °C 30in /  1015.9hPa NE 12.5mph /  20.1km/h 24.2mph /  38.9km/h 36.9% 0in /  0.0mm
17:29 89.4 °F /  31.9 °C 59.7 °F /  15.4 °C 30in /  1015.9hPa NE 12.9mph /  20.8km/h 24.6mph /  39.6km/h 37% 0in /  0.0mm
17:34 89.4 °F /  31.9 °C 59.4 °F /  15.2 °C 30in /  1015.9hPa NE 14mph /  22.5km/h 25mph /  40.2km/h 36.5% 0in /  0.0mm
17:39 89.2 °F /  31.8 °C 59.5 °F /  15.3 °C 30in /  1015.9hPa NE 14.4mph /  23.1km/h 25.6mph /  41.2km/h 36.8% 0in /  0.0mm
17:44 89.2 °F /  31.8 °C 59.5 °F /  15.3 °C 30in /  1015.9hPa NE 15.2mph /  24.5km/h 26mph /  41.8km/h 37% 0in /  0.0mm
17:49 89.4 °F /  31.9 °C 59.7 °F /  15.4 °C 30in /  1016.0hPa NE 14.7mph /  23.7km/h 22mph /  35.4km/h 37% 0in /  0.0mm
17:54 89.6 °F /  32 °C 60.1 °F /  15.6 °C 30in /  1016.0hPa NE 13.5mph /  21.7km/h 22mph /  35.4km/h 37.4% 0in /  0.0mm
17:59 90 °F /  32.2 °C 60.3 °F /  15.7 °C 30in /  1016.0hPa NE 12.4mph /  20km/h 19.6mph /  31.5km/h 36.9% 0in /  0.0mm
18:04 89.6 °F /  32 °C 59.9 °F /  15.5 °C 30in /  1016.0hPa NE 10mph /  16.1km/h 20mph /  32.2km/h 37.1% 0in /  0.0mm
18:09 89.6 °F /  32 °C 60.6 °F /  15.9 °C 30in /  1015.8hPa NE 10.7mph /  17.2km/h 21.3mph /  34.3km/h 38% 0in /  0.0mm
18:14 89.4 °F /  31.9 °C 60.4 °F /  15.8 °C 30in /  1015.8hPa NE 12.5mph /  20.1km/h 25.6mph /  41.2km/h 38% 0in /  0.0mm
18:19 89.2 °F /  31.8 °C 60.3 °F /  15.7 °C 30in /  1015.8hPa NE 12.7mph /  20.4km/h 26mph /  41.8km/h 38% 0in /  0.0mm
18:24 89.2 °F /  31.8 °C 60.1 °F /  15.6 °C 30in /  1015.5hPa NE 13mph /  20.9km/h 26.8mph /  43.1km/h 37.7% 0in /  0.0mm
18:29 88.9 °F /  31.6 °C 60.1 °F /  15.6 °C 30in /  1015.5hPa NE 13.5mph /  21.7km/h 27mph /  43.5km/h 38.1% 0in /  0.0mm
18:34 88.7 °F /  31.5 °C 60.6 °F /  15.9 °C 30in /  1015.5hPa NE 14.7mph /  23.7km/h 25mph /  40.2km/h 38.9% 0in /  0.0mm
18:39 88.5 °F /  31.4 °C 60.6 °F /  15.9 °C 30in /  1015.4hPa NE 14.8mph /  23.9km/h 25.6mph /  41.2km/h 39.3% 0in /  0.0mm
18:44 88.3 °F /  31.3 °C 61 °F /  16.1 °C 30in /  1015.4hPa NE 15.2mph /  24.5km/h 26mph /  41.8km/h 40% 0in /  0.0mm
18:49 88.3 °F /  31.3 °C 61 °F /  16.1 °C 30in /  1015.4hPa NE 15.2mph /  24.5km/h 26mph /  41.8km/h 40% 0in /  0.0mm
18:54 88.2 °F /  31.2 °C 60.3 °F /  15.7 °C 30in /  1015.3hPa NE 15.2mph /  24.5km/h 24mph /  38.6km/h 39.4% 0in /  0.0mm
18:59 88.2 °F /  31.2 °C 61.2 °F /  16.2 °C 30in /  1015.3hPa NE 14.7mph /  23.7km/h 27.9mph /  44.9km/h 40.8% 0in /  0.0mm
19:04 87.8 °F /  31 °C 61 °F /  16.1 °C 30in /  1015.4hPa NE 13.7mph /  22.1km/h 28mph /  45.1km/h 40.7% 0in /  0.0mm
19:09 87.6 °F /  30.9 °C 61 °F /  16.1 °C 30in /  1015.4hPa NE 13.7mph /  22.1km/h 26.5mph /  42.6km/h 41% 0in /  0.0mm
19:14 87.4 °F /  30.8 °C 61.2 °F /  16.2 °C 30in /  1015.4hPa NE 13.7mph /  22.1km/h 26.5mph /  42.6km/h 41.5% 0in /  0.0mm
19:19 87.4 °F /  30.8 °C 61 °F /  16.1 °C 30in /  1015.5hPa NE 13.9mph /  22.4km/h 26mph /  41.8km/h 41.2% 0in /  0.0mm
19:24 87.3 °F /  30.7 °C 61.5 °F /  16.4 °C 30in /  1015.5hPa NE 14.5mph /  23.3km/h 25mph /  40.2km/h 42% 0in /  0.0mm
19:29 87.3 °F /  30.7 °C 61.3 °F /  16.3 °C 30in /  1015.5hPa ENE 14.2mph /  22.8km/h 22mph /  35.4km/h 42% 0in /  0.0mm
19:34 87.3 °F /  30.7 °C 61.9 °F /  16.6 °C 30in /  1015.7hPa NE 12.3mph /  19.8km/h 22.3mph /  35.9km/h 42.8% 0in /  0.0mm
19:39 87.3 °F /  30.7 °C 61.9 °F /  16.6 °C 30in /  1015.7hPa NE 11.9mph /  19.1km/h 22mph /  35.4km/h 43% 0in /  0.0mm
19:44 87.1 °F /  30.6 °C 62.4 °F /  16.9 °C 30in /  1015.7hPa NE 10.7mph /  17.2km/h 20mph /  32.2km/h 43.9% 0in /  0.0mm
19:49 87.1 °F /  30.6 °C 62.4 °F /  16.9 °C 30in /  1015.7hPa NE 10.7mph /  17.2km/h 20.8mph /  33.5km/h 43.8% 0in /  0.0mm
19:54 86.9 °F /  30.5 °C 61.7 °F /  16.5 °C 30in /  1015.7hPa NE 10.7mph /  17.2km/h 21mph /  33.8km/h 43% 0in /  0.0mm
19:59 86.5 °F /  30.3 °C 61.7 °F /  16.5 °C 30in /  1015.7hPa NE 11.2mph /  18.1km/h 21mph /  33.8km/h 43.5% 0in /  0.0mm
20:04 86.5 °F /  30.3 °C 61.9 °F /  16.6 °C 30in /  1016.0hPa NE 12.5mph /  20.1km/h 19mph /  30.6km/h 44% 0in /  0.0mm
20:09 86.4 °F /  30.2 °C 61.9 °F /  16.6 °C 30in /  1016.0hPa NE 12mph /  19.3km/h 17mph /  27.4km/h 44% 0in /  0.0mm
20:14 86.4 °F /  30.2 °C 62.2 °F /  16.8 °C 30in /  1016.0hPa NE 10.7mph /  17.2km/h 17.3mph /  27.8km/h 44.7% 0in /  0.0mm
20:19 86.4 °F /  30.2 °C 63.3 °F /  17.4 °C 30in /  1016.4hPa ENE 10.1mph /  16.3km/h 17mph /  27.4km/h 46.3% 0in /  0.0mm
20:24 86.4 °F /  30.2 °C 63.7 °F /  17.6 °C 30in /  1016.4hPa NE 8.5mph /  13.7km/h 15.6mph /  25.1km/h 47% 0in /  0.0mm
20:29 86 °F /  30 °C 63.5 °F /  17.5 °C 30in /  1016.4hPa ENE 7.8mph /  12.6km/h 16.1mph /  25.9km/h 47% 0in /  0.0mm
20:34 85.6 °F /  29.8 °C 63.7 °F /  17.6 °C 30in /  1016.7hPa NE 6.2mph /  10km/h 16.3mph /  26.2km/h 47.7% 0in /  0.0mm
20:39 85.5 °F /  29.7 °C 63.9 °F /  17.7 °C 30in /  1016.7hPa ENE 6.5mph /  10.5km/h 16mph /  25.7km/h 48.6% 0in /  0.0mm
20:44 85.3 °F /  29.6 °C 64 °F /  17.8 °C 30in /  1016.7hPa NE 7.4mph /  11.9km/h 16.1mph /  25.9km/h 49% 0in /  0.0mm
20:49 85.3 °F /  29.6 °C 64.2 °F /  17.9 °C 30in /  1016.9hPa NE 7.1mph /  11.4km/h 17mph /  27.4km/h 49.5% 0in /  0.0mm
20:54 84.9 °F /  29.4 °C 64.2 °F /  17.9 °C 30in /  1016.9hPa NE 6.2mph /  10km/h 17.3mph /  27.8km/h 50.1% 0in /  0.0mm
20:59 84.7 °F /  29.3 °C 64.6 °F /  18.1 °C 30in /  1016.9hPa ENE 6.9mph /  11.1km/h 15mph /  24.1km/h 51.1% 0in /  0.0mm
21:04 84.6 °F /  29.2 °C 64.9 °F /  18.3 °C 30in /  1017.0hPa ENE 8.5mph /  13.7km/h 14mph /  22.5km/h 52% 0in /  0.0mm
21:09 84.2 °F /  29 °C 64.9 °F /  18.3 °C 30in /  1017.0hPa NE 8mph /  12.8km/h 15mph /  24.1km/h 52.5% 0in /  0.0mm
21:14 84 °F /  28.9 °C 65.1 °F /  18.4 °C 30in /  1017.0hPa NE 6.4mph /  10.3km/h 15mph /  24.1km/h 53.2% 0in /  0.0mm
21:19 83.8 °F /  28.8 °C 65.5 °F /  18.6 °C 30in /  1017.2hPa NE 6.8mph /  11km/h 18.1mph /  29.1km/h 54.3% 0in /  0.0mm
21:24 83.5 °F /  28.6 °C 65.8 °F /  18.8 °C 30in /  1017.2hPa NE 8.1mph /  13km/h 18mph /  29km/h 55.3% 0in /  0.0mm
21:29 83.3 °F /  28.5 °C 66 °F /  18.9 °C 30in /  1017.2hPa NE 8mph /  12.8km/h 15mph /  24.1km/h 56% 0in /  0.0mm
21:34 82.9 °F /  28.3 °C 66.2 °F /  19 °C 30.1in /  1017.5hPa NE 7.6mph /  12.2km/h 14mph /  22.5km/h 57.1% 0in /  0.0mm
21:39 82.8 °F /  28.2 °C 66.6 °F /  19.2 °C 30.1in /  1017.5hPa NE 7.4mph /  11.9km/h 16.1mph /  25.9km/h 58% 0in /  0.0mm
21:44 82.6 °F /  28.1 °C 66.9 °F /  19.4 °C 30.1in /  1017.5hPa NE 6.9mph /  11.1km/h 16mph /  25.7km/h 59% 0in /  0.0mm
21:49 82.6 °F /  28.1 °C 67.1 °F /  19.5 °C 30.1in /  1017.8hPa NE 6.5mph /  10.4km/h 10mph /  16.1km/h 59.6% 0in /  0.0mm
21:54 82.2 °F /  27.9 °C 66.9 °F /  19.4 °C 30.1in /  1017.8hPa NE 5.2mph /  8.4km/h 8.5mph /  13.7km/h 60% 0in /  0.0mm
21:59 82 °F /  27.8 °C 67.3 °F /  19.6 °C 30.1in /  1017.8hPa NE 5.2mph /  8.4km/h 9mph /  14.5km/h 60.8% 0in /  0.0mm
22:04 81.9 °F /  27.7 °C 67.5 °F /  19.7 °C 30.1in /  1018.1hPa NE 5.2mph /  8.4km/h 10.7mph /  17.2km/h 61.5% 0in /  0.0mm
22:09 81.9 °F /  27.7 °C 67.8 °F /  19.9 °C 30.1in /  1018.1hPa NE 5.5mph /  8.8km/h 11mph /  17.7km/h 62.6% 0in /  0.0mm
22:14 81.5 °F /  27.5 °C 68 °F /  20 °C 30.1in /  1018.1hPa NE 6.2mph /  10km/h 14mph /  22.5km/h 63.7% 0in /  0.0mm
22:19 81.3 °F /  27.4 °C 68.2 °F /  20.1 °C 30.1in /  1018.4hPa NE 6.4mph /  10.3km/h 16.1mph /  25.9km/h 64.7% 0in /  0.0mm
22:24 81.1 °F /  27.3 °C 68.5 °F /  20.3 °C 30.1in /  1018.4hPa NE 6.9mph /  11.1km/h 16mph /  25.7km/h 65.4% 0in /  0.0mm
22:29 81 °F /  27.2 °C 68.5 °F /  20.3 °C 30.1in /  1018.4hPa NE 7.3mph /  11.7km/h 12.7mph /  20.4km/h 66% 0in /  0.0mm
22:34 81 °F /  27.2 °C 68.9 °F /  20.5 °C 30.1in /  1018.6hPa NE 8.1mph /  13km/h 15mph /  24.1km/h 66.9% 0in /  0.0mm
22:39 80.6 °F /  27 °C 68.7 °F /  20.4 °C 30.1in /  1018.6hPa NE 8.2mph /  13.2km/h 15mph /  24.1km/h 67% 0in /  0.0mm
22:44 80.6 °F /  27 °C 69.1 °F /  20.6 °C 30.1in /  1018.6hPa NE 8.5mph /  13.7km/h 13mph /  20.9km/h 68% 0in /  0.0mm
22:49 80.4 °F /  26.9 °C 68.9 °F /  20.5 °C 30.1in /  1018.7hPa NE 8.1mph /  13km/h 13mph /  20.9km/h 68% 0in /  0.0mm
22:54 80.4 °F /  26.9 °C 69.1 °F /  20.6 °C 30.1in /  1018.7hPa NE 6.9mph /  11.1km/h 12mph /  19.3km/h 68.3% 0in /  0.0mm
22:59 80.2 °F /  26.8 °C 69.1 °F /  20.6 °C 30.1in /  1018.7hPa NE 6.7mph /  10.8km/h 12mph /  19.3km/h 69% 0in /  0.0mm
23:04 80.2 °F /  26.8 °C 69.1 °F /  20.6 °C 30.1in /  1018.9hPa NE 6.2mph /  10km/h 12mph /  19.3km/h 69% 0in /  0.0mm
23:09 80.1 °F /  26.7 °C 69.1 °F /  20.6 °C 30.1in /  1018.9hPa NE 6.2mph /  10km/h 10.4mph /  16.7km/h 69% 0in /  0.0mm
23:14 80.1 °F /  26.7 °C 69.3 °F /  20.7 °C 30.1in /  1018.9hPa NE 6.2mph /  10km/h 10mph /  16.1km/h 69.8% 0in /  0.0mm
23:19 79.9 °F /  26.6 °C 69.3 °F /  20.7 °C 30.1in /  1018.9hPa NE 5.9mph /  9.5km/h 10mph /  16.1km/h 70% 0in /  0.0mm
23:24 79.9 °F /  26.6 °C 69.3 °F /  20.7 °C 30.1in /  1018.9hPa NE 5.2mph /  8.4km/h 10.4mph /  16.7km/h 70% 0in /  0.0mm
23:29 79.9 °F /  26.6 °C 69.1 °F /  20.6 °C 30.1in /  1018.9hPa NE 5.3mph /  8.5km/h 9.7mph /  15.6km/h 69.9% 0in /  0.0mm
23:34 79.9 °F /  26.6 °C 68.9 °F /  20.5 °C 30.1in /  1019.1hPa NE 5.4mph /  8.7km/h 10mph /  16.1km/h 69.1% 0in /  0.0mm
23:39 79.9 °F /  26.6 °C 68.7 °F /  20.4 °C 30.1in /  1019.1hPa NE 5.2mph /  8.4km/h 8mph /  12.9km/h 69% 0in /  0.0mm
23:44 79.9 °F /  26.6 °C 68.4 °F /  20.2 °C 30.1in /  1019.1hPa NE 4.7mph /  7.6km/h 8.1mph /  13km/h 68.1% 0in /  0.0mm
23:49 79.9 °F /  26.6 °C 68.2 °F /  20.1 °C 30.1in /  1019.2hPa NE 4.9mph /  7.9km/h 9.2mph /  14.8km/h 67.5% 0in /  0.0mm
23:54 79.9 °F /  26.6 °C 67.8 °F /  19.9 °C 30.1in /  1019.2hPa NE 5.4mph /  8.7km/h 9.2mph /  14.8km/h 66.8% 0in /  0.0mm
23:59 79.9 °F /  26.6 °C 67.5 °F /  19.7 °C 30.1in /  1019.2hPa NE 5.5mph /  8.9km/h 10.4mph /  16.7km/h 66% 0in /  0.0mm
Murcia-Puente Tocinos, España
Compliments of Weather Underground - 3 mb

La estación de MeteoMurcia.com, publica sus datos en los siguientes proyectos:

Weather Underground PWS IMURCIAP2 Meteoclimatic www.awekas.at

W3Counter
Web Analytics